createdAt,value
2023-04-18T00:00:58.657Z,11.20
2023-04-18T00:03:27.514Z,11.71
2023-04-18T00:05:55.839Z,11.76
2023-04-18T00:08:23.663Z,11.64
2023-04-18T00:10:51.631Z,11.50
2023-04-18T00:13:19.791Z,11.60
2023-04-18T00:15:47.426Z,11.47
2023-04-18T00:18:15.513Z,11.23
2023-04-18T00:20:43.382Z,11.33
2023-04-18T00:23:12.164Z,11.02
2023-04-18T00:25:41.457Z,11.07
2023-04-18T00:28:09.392Z,10.74
2023-04-18T00:30:37.230Z,11.32
2023-04-18T00:33:05.600Z,11.55
2023-04-18T00:35:33.223Z,11.78
2023-04-18T00:38:00.936Z,11.81
2023-04-18T00:40:28.993Z,11.87
2023-04-18T00:42:56.955Z,11.75
2023-04-18T00:45:24.557Z,11.78
2023-04-18T00:47:52.519Z,11.79
2023-04-18T00:50:20.352Z,11.59
2023-04-18T00:52:48.138Z,11.70
2023-04-18T00:55:16.582Z,11.67
2023-04-18T00:57:44.616Z,11.59
2023-04-18T01:00:12.834Z,11.67
2023-04-18T01:02:41.337Z,11.59
2023-04-18T01:05:09.209Z,11.63
2023-04-18T01:07:38.730Z,11.56
2023-04-18T01:10:08.140Z,11.44
2023-04-18T01:12:35.866Z,11.61
2023-04-18T01:15:04.896Z,11.57
2023-04-18T01:17:32.960Z,11.61
2023-04-18T01:20:01.059Z,11.57
2023-04-18T01:22:28.953Z,11.60
2023-04-18T01:24:57.458Z,11.59
2023-04-18T01:27:25.172Z,11.54
2023-04-18T01:29:53.917Z,11.49
2023-04-18T01:32:22.145Z,11.58
2023-04-18T01:34:49.846Z,11.60
2023-04-18T01:37:17.480Z,10.56
2023-04-18T01:39:45.507Z,11.20
2023-04-18T01:42:13.147Z,11.39
2023-04-18T01:44:40.750Z,11.46
2023-04-18T01:47:08.708Z,11.53
2023-04-18T01:49:36.294Z,11.60
2023-04-18T01:52:04.059Z,11.51
2023-04-18T01:54:32.117Z,11.54
2023-04-18T01:56:59.670Z,11.76
2023-04-18T01:59:27.457Z,11.46
2023-04-18T02:01:55.668Z,11.50
2023-04-18T02:04:25.100Z,11.41
2023-04-18T02:06:52.859Z,11.46
2023-04-18T02:09:21.203Z,11.44
2023-04-18T02:11:49.660Z,11.42
2023-04-18T02:14:17.815Z,11.40
2023-04-18T02:16:45.878Z,11.37
2023-04-18T02:19:13.553Z,11.37
2023-04-18T02:21:43.402Z,11.41
2023-04-18T02:24:11.553Z,11.21
2023-04-18T02:26:39.583Z,11.26
2023-04-18T02:29:07.588Z,11.47
2023-04-18T02:31:37.645Z,11.22
2023-04-18T02:34:07.783Z,11.31
2023-04-18T02:36:35.726Z,11.22
2023-04-18T02:39:03.830Z,11.22
2023-04-18T02:41:31.594Z,11.17
2023-04-18T02:43:59.724Z,11.17
2023-04-18T02:46:27.499Z,11.34
2023-04-18T02:48:55.541Z,11.29
2023-04-18T02:51:23.804Z,11.40
2023-04-18T02:53:51.820Z,11.25
2023-04-18T02:56:20.510Z,11.33
2023-04-18T02:58:50.557Z,11.41
2023-04-18T03:01:20.277Z,11.43
2023-04-18T03:03:48.969Z,11.50
2023-04-18T03:06:17.544Z,11.34
2023-04-18T03:08:45.553Z,11.47
2023-04-18T03:11:14.476Z,11.37
2023-04-18T03:13:42.673Z,11.37
2023-04-18T03:16:10.521Z,11.38
2023-04-18T03:18:38.556Z,11.38
2023-04-18T03:21:06.654Z,11.35
2023-04-18T03:23:36.154Z,11.36
2023-04-18T03:26:06.028Z,11.41
2023-04-18T03:28:35.079Z,11.41
2023-04-18T03:31:02.949Z,11.34
2023-04-18T03:33:32.193Z,11.49
2023-04-18T03:36:01.273Z,11.41
2023-04-18T03:38:29.196Z,11.57
2023-04-18T03:40:57.340Z,11.47
2023-04-18T03:43:25.521Z,11.43
2023-04-18T03:45:53.300Z,11.41
2023-04-18T03:48:21.103Z,11.54
2023-04-18T03:50:49.847Z,11.46
2023-04-18T03:53:18.012Z,11.38
2023-04-18T03:55:45.768Z,11.44
2023-04-18T03:58:14.545Z,11.55
2023-04-18T04:00:42.402Z,11.56
2023-04-18T04:03:10.629Z,11.57
2023-04-18T04:05:38.352Z,11.54
2023-04-18T04:08:06.297Z,11.44
2023-04-18T04:10:34.710Z,11.48
2023-04-18T04:13:02.680Z,11.35
2023-04-18T04:15:30.574Z,11.48
2023-04-18T04:17:59.109Z,11.51
2023-04-18T04:20:27.226Z,11.47
2023-04-18T04:22:55.735Z,11.51
2023-04-18T04:25:27.052Z,11.50
2023-04-18T04:27:54.863Z,11.70
2023-04-18T04:30:22.921Z,11.45
2023-04-18T04:32:50.932Z,11.55
2023-04-18T04:35:18.822Z,11.67
2023-04-18T04:37:47.084Z,11.79
2023-04-18T04:40:16.281Z,11.78
2023-04-18T04:42:44.341Z,11.74
2023-04-18T04:45:12.533Z,11.84
2023-04-18T04:47:40.185Z,11.57
2023-04-18T04:50:08.367Z,11.69
2023-04-18T04:52:36.501Z,11.79
2023-04-18T04:55:04.371Z,11.67
2023-04-18T04:57:32.179Z,11.64
2023-04-18T05:00:01.132Z,11.80
2023-04-18T05:02:29.134Z,11.85
2023-04-18T05:04:57.412Z,11.79
2023-04-18T05:07:25.491Z,11.99
2023-04-18T05:09:53.321Z,12.14
2023-04-18T05:12:21.141Z,12.11
2023-04-18T05:14:49.164Z,12.03
2023-04-18T05:17:17.032Z,12.10
2023-04-18T05:19:44.843Z,12.03
2023-04-18T05:22:12.934Z,12.08
2023-04-18T05:24:40.808Z,12.09
2023-04-18T05:27:08.604Z,12.13
2023-04-18T05:29:36.684Z,12.19
2023-04-18T05:32:04.601Z,12.26
2023-04-18T05:34:33.206Z,12.15
2023-04-18T05:37:01.484Z,12.35
2023-04-18T05:39:29.380Z,12.27
2023-04-18T05:41:57.598Z,12.33
2023-04-18T05:44:25.670Z,12.48
2023-04-18T05:46:53.380Z,12.43
2023-04-18T05:49:21.256Z,12.50
2023-04-18T05:51:49.243Z,12.52
2023-04-18T05:54:17.049Z,12.55
2023-04-18T05:56:44.862Z,12.66
2023-04-18T05:59:13.394Z,12.73
2023-04-18T06:01:41.014Z,12.70
2023-04-18T06:04:09.704Z,12.90
2023-04-18T06:06:37.524Z,12.89
2023-04-18T06:09:05.159Z,12.93
2023-04-18T06:11:33.152Z,12.84
2023-04-18T06:14:00.880Z,12.93
2023-04-18T06:16:28.751Z,13.06
2023-04-18T06:18:57.873Z,12.82
2023-04-18T06:21:27.364Z,12.98
2023-04-18T06:23:55.115Z,13.06
2023-04-18T06:26:23.100Z,13.12
2023-04-18T06:28:50.737Z,13.20
2023-04-18T06:31:18.539Z,13.31
2023-04-18T06:33:46.677Z,13.24
2023-04-18T06:36:14.405Z,13.41
2023-04-18T06:38:42.103Z,13.48
2023-04-18T06:41:10.240Z,13.72
2023-04-18T06:43:37.854Z,13.61
2023-04-18T06:46:05.748Z,13.86
2023-04-18T06:48:33.863Z,13.95
2023-04-18T06:51:01.859Z,13.96
2023-04-18T06:53:29.744Z,14.02
2023-04-18T06:55:58.005Z,14.02
2023-04-18T06:58:25.777Z,14.12
2023-04-18T07:00:53.467Z,14.20
2023-04-18T07:03:21.524Z,14.15
2023-04-18T07:05:49.512Z,14.26
2023-04-18T07:08:17.226Z,14.47
2023-04-18T07:10:45.098Z,14.43
2023-04-18T07:13:12.687Z,14.70
2023-04-18T07:15:40.435Z,15.01
2023-04-18T07:18:08.652Z,15.03
2023-04-18T07:20:36.371Z,14.96
2023-04-18T07:23:04.047Z,15.18
2023-04-18T07:25:32.246Z,15.07
2023-04-18T07:27:59.829Z,15.48
2023-04-18T07:30:27.487Z,15.38
2023-04-18T07:32:55.681Z,15.22
2023-04-18T07:35:23.603Z,15.42
2023-04-18T07:37:53.174Z,15.31
2023-04-18T07:40:21.740Z,15.51
2023-04-18T07:42:49.277Z,15.41
2023-04-18T07:45:16.924Z,15.77
2023-04-18T07:47:44.932Z,15.76
2023-04-18T07:50:12.769Z,15.75
2023-04-18T07:52:40.404Z,15.99
2023-04-18T07:55:08.738Z,15.71
2023-04-18T07:57:36.401Z,16.00
2023-04-18T08:00:04.854Z,16.07
2023-04-18T08:02:40.405Z,16.48
2023-04-18T08:05:09.336Z,16.75
2023-04-18T08:07:37.105Z,16.50
2023-04-18T08:10:05.243Z,16.36
2023-04-18T08:12:33.244Z,16.09
2023-04-18T08:15:00.777Z,16.45
2023-04-18T08:17:28.374Z,16.33
2023-04-18T08:19:56.543Z,16.53
2023-04-18T08:22:24.108Z,16.76
2023-04-18T08:27:25.437Z,16.60
2023-04-18T08:29:53.224Z,16.63
2023-04-18T08:32:21.025Z,16.82
2023-04-18T08:34:48.958Z,16.93
2023-04-18T08:37:16.570Z,16.86
2023-04-18T08:39:44.209Z,17.16
2023-04-18T08:42:22.837Z,17.19
2023-04-18T08:44:50.541Z,16.96
2023-04-18T08:47:18.580Z,17.24
2023-04-18T08:49:46.206Z,17.15
2023-04-18T08:52:14.608Z,17.21
2023-04-18T08:54:43.161Z,17.13
2023-04-18T08:57:11.807Z,17.30
2023-04-18T08:59:39.534Z,17.15
2023-04-18T09:02:07.522Z,17.30
2023-04-18T09:04:38.015Z,17.49
2023-04-18T09:07:07.590Z,17.80
2023-04-18T09:09:51.881Z,17.85
2023-04-18T09:12:24.087Z,17.92
2023-04-18T09:14:57.053Z,18.15
2023-04-18T09:17:36.949Z,18.53
2023-04-18T09:20:06.095Z,18.87
2023-04-18T09:22:50.874Z,17.99
2023-04-18T09:25:30.189Z,18.20
2023-04-18T09:27:58.279Z,18.34
2023-04-18T09:30:40.584Z,18.50
2023-04-18T09:33:09.748Z,18.54
2023-04-18T09:35:37.985Z,18.72
2023-04-18T09:38:06.189Z,19.30
2023-04-18T09:40:33.929Z,19.23
2023-04-18T09:43:17.630Z,19.15
2023-04-18T09:45:47.119Z,18.70
2023-04-18T09:48:15.158Z,18.87
2023-04-18T09:50:42.949Z,19.22
2023-04-18T09:53:11.808Z,19.52
2023-04-18T09:55:39.830Z,19.62
2023-04-18T09:58:07.690Z,19.37
2023-04-18T10:00:36.290Z,18.83
2023-04-18T10:03:08.736Z,19.38
2023-04-18T10:05:39.872Z,19.04
2023-04-18T10:08:08.488Z,19.05
2023-04-18T10:10:37.514Z,18.76
2023-04-18T10:13:07.175Z,18.77
2023-04-18T10:15:35.193Z,18.69
2023-04-18T10:18:08.924Z,19.20
2023-04-18T10:20:37.009Z,19.24
2023-04-18T10:23:32.759Z,17.97
2023-04-18T10:26:01.499Z,18.78
2023-04-18T10:28:55.353Z,18.85
2023-04-18T10:31:28.444Z,19.04
2023-04-18T10:34:05.325Z,19.76
2023-04-18T10:36:34.043Z,19.56
2023-04-18T10:39:21.718Z,20.69
2023-04-18T10:41:51.140Z,20.83
2023-04-18T10:44:20.594Z,21.04
2023-04-18T10:46:48.167Z,20.49
2023-04-18T10:49:28.401Z,20.16
2023-04-18T10:51:59.039Z,19.37
2023-04-18T10:54:48.812Z,19.40
2023-04-18T10:57:16.533Z,19.53
2023-04-18T10:59:48.777Z,20.80
2023-04-18T11:02:27.636Z,20.20
2023-04-18T11:04:58.658Z,21.19
2023-04-18T11:07:42.801Z,21.48
2023-04-18T11:10:11.756Z,21.02
2023-04-18T11:12:41.116Z,21.23
2023-04-18T11:15:12.684Z,21.42
2023-04-18T11:17:40.645Z,20.90
2023-04-18T11:20:10.692Z,21.50
2023-04-18T11:22:45.996Z,20.99
2023-04-18T11:25:14.814Z,21.23
2023-04-18T11:27:47.396Z,21.31
2023-04-18T11:30:15.662Z,21.12
2023-04-18T11:32:43.786Z,21.13
2023-04-18T11:35:12.577Z,20.83
2023-04-18T11:37:41.441Z,21.18
2023-04-18T11:40:09.767Z,20.78
2023-04-18T11:42:38.969Z,21.71
2023-04-18T11:45:13.792Z,22.13
2023-04-18T11:47:42.591Z,21.63
2023-04-18T11:50:12.320Z,20.75
2023-04-18T11:52:41.535Z,21.24
2023-04-18T11:55:14.062Z,21.79
2023-04-18T11:57:42.029Z,22.03
2023-04-18T12:00:10.310Z,22.05
2023-04-18T12:02:42.283Z,22.11
2023-04-18T12:05:10.515Z,21.51
2023-04-18T12:07:44.312Z,21.07
2023-04-18T12:10:28.418Z,20.75
2023-04-18T12:12:59.807Z,20.89
2023-04-18T12:15:28.833Z,20.84
2023-04-18T12:18:01.566Z,21.12
2023-04-18T12:21:02.394Z,21.23
2023-04-18T12:23:40.488Z,21.67
2023-04-18T12:26:17.438Z,21.75
2023-04-18T12:28:46.230Z,21.37
2023-04-18T12:31:14.272Z,20.91
2023-04-18T12:33:41.878Z,21.85
2023-04-18T12:36:10.007Z,21.58
2023-04-18T12:38:38.251Z,22.14
2023-04-18T12:41:06.329Z,21.54
2023-04-18T12:43:34.384Z,21.83
2023-04-18T12:46:02.356Z,22.12
2023-04-18T12:48:30.330Z,21.97
2023-04-18T12:50:58.522Z,21.46
2023-04-18T12:53:26.187Z,21.87
2023-04-18T12:55:54.589Z,22.30
2023-04-18T12:58:23.253Z,22.51
2023-04-18T13:00:51.100Z,21.96
2023-04-18T13:03:19.253Z,21.42
2023-04-18T13:05:47.350Z,21.51
2023-04-18T13:08:18.113Z,21.64
2023-04-18T13:10:46.515Z,21.36
2023-04-18T13:13:14.566Z,21.94
2023-04-18T13:15:42.302Z,21.75
2023-04-18T13:18:10.006Z,21.55
2023-04-18T13:20:38.068Z,21.45
2023-04-18T13:23:05.680Z,22.06
2023-04-18T13:25:33.370Z,21.60
2023-04-18T13:28:01.417Z,21.58
2023-04-18T13:30:29.158Z,21.82
2023-04-18T13:32:58.059Z,21.24
2023-04-18T13:35:25.983Z,20.95
2023-04-18T13:37:57.273Z,20.97
2023-04-18T13:40:25.382Z,20.16
2023-04-18T13:42:53.274Z,20.27
2023-04-18T13:45:21.139Z,20.36
2023-04-18T13:47:48.832Z,20.71
2023-04-18T13:50:17.457Z,21.27
2023-04-18T13:52:48.013Z,21.73
2023-04-18T13:55:15.927Z,20.98
2023-04-18T13:57:43.707Z,21.04
2023-04-18T14:00:11.936Z,21.49
2023-04-18T14:02:39.757Z,21.39
2023-04-18T14:05:08.456Z,21.13
2023-04-18T14:07:36.413Z,21.89
2023-04-18T14:10:04.646Z,22.03
2023-04-18T14:12:32.709Z,21.57
2023-04-18T14:15:00.277Z,21.64
2023-04-18T14:17:27.967Z,21.67
2023-04-18T14:19:56.062Z,21.70
2023-04-18T14:22:23.835Z,20.97
2023-04-18T14:24:51.462Z,21.03
2023-04-18T14:27:19.403Z,20.84
2023-04-18T14:29:47.099Z,21.19
2023-04-18T14:32:15.578Z,21.29
2023-04-18T14:34:43.602Z,21.08
2023-04-18T14:37:11.526Z,21.29
2023-04-18T14:39:39.222Z,20.87
2023-04-18T14:42:07.067Z,20.72
2023-04-18T14:44:34.837Z,20.44
2023-04-18T14:47:02.522Z,21.14
2023-04-18T14:49:39.880Z,22.15
2023-04-18T14:52:07.850Z,21.57
2023-04-18T14:54:36.206Z,21.56
2023-04-18T14:57:03.905Z,21.30
2023-04-18T14:59:31.678Z,20.91
2023-04-18T15:02:00.391Z,20.93
2023-04-18T15:04:28.334Z,21.07
2023-04-18T15:06:56.111Z,21.60
2023-04-18T15:09:24.132Z,21.66
2023-04-18T15:11:52.216Z,21.37
2023-04-18T15:14:19.879Z,21.07
2023-04-18T15:16:50.791Z,21.32
2023-04-18T15:19:18.569Z,21.89
2023-04-18T15:21:46.970Z,20.68
2023-04-18T15:24:15.610Z,21.48
2023-04-18T15:26:43.471Z,20.99
2023-04-18T15:29:11.330Z,21.35
2023-04-18T15:31:39.377Z,20.49
2023-04-18T15:34:07.663Z,20.33
2023-04-18T15:36:35.565Z,20.46
2023-04-18T15:39:03.960Z,20.33
2023-04-18T15:41:36.294Z,20.45
2023-04-18T15:44:05.551Z,20.33
2023-04-18T15:46:34.944Z,20.55
2023-04-18T15:49:02.678Z,20.73
2023-04-18T15:51:30.584Z,20.55
2023-04-18T15:53:58.385Z,20.05
2023-04-18T15:56:26.029Z,20.00
2023-04-18T15:58:57.991Z,19.63
2023-04-18T16:01:26.525Z,19.68
2023-04-18T16:03:54.627Z,19.62
2023-04-18T16:06:22.402Z,19.33
2023-04-18T16:08:50.534Z,18.70
2023-04-18T16:11:20.072Z,18.80
2023-04-18T16:13:47.694Z,18.87
2023-04-18T16:16:15.397Z,18.82
2023-04-18T16:18:43.313Z,18.75
2023-04-18T16:21:14.774Z,19.26
2023-04-18T16:23:43.038Z,18.88
2023-04-18T16:26:10.998Z,19.29
2023-04-18T16:28:38.892Z,18.61
2023-04-18T16:31:06.727Z,18.55
2023-04-18T16:33:34.885Z,18.30
2023-04-18T16:36:02.823Z,18.16
2023-04-18T16:38:30.557Z,17.89
2023-04-18T16:40:58.766Z,18.09
2023-04-18T16:43:26.546Z,18.02
2023-04-18T16:45:54.578Z,18.26
2023-04-18T16:48:22.945Z,17.92
2023-04-18T16:50:50.729Z,18.05
2023-04-18T16:53:18.581Z,17.92
2023-04-18T16:55:46.585Z,17.52
2023-04-18T16:58:14.666Z,17.47
2023-04-18T17:00:43.159Z,17.30
2023-04-18T17:03:11.342Z,16.92
2023-04-18T17:05:39.119Z,17.04
2023-04-18T17:08:07.106Z,16.86
2023-04-18T17:10:35.333Z,16.92
2023-04-18T17:13:03.558Z,16.67
2023-04-18T17:15:31.268Z,16.46
2023-04-18T17:17:59.499Z,16.69
2023-04-18T17:20:27.228Z,16.86
2023-04-18T17:22:55.302Z,16.50
2023-04-18T17:25:23.350Z,16.36
2023-04-18T17:27:51.313Z,16.43
2023-04-18T17:30:19.239Z,16.24
2023-04-18T17:32:47.837Z,15.68
2023-04-18T17:35:15.815Z,15.44
2023-04-18T17:37:43.704Z,15.55
2023-04-18T17:40:12.088Z,15.26
2023-04-18T17:42:40.104Z,15.16
2023-04-18T17:45:09.204Z,15.13
2023-04-18T17:47:37.348Z,14.96
2023-04-18T17:50:07.112Z,15.09
2023-04-18T17:52:35.152Z,15.09
2023-04-18T17:55:06.558Z,14.88
2023-04-18T17:57:34.236Z,14.73
2023-04-18T18:00:02.125Z,14.75
2023-04-18T18:02:40.895Z,14.79
2023-04-18T18:05:10.696Z,14.50
2023-04-18T18:07:39.139Z,14.58
2023-04-18T18:10:17.850Z,14.47
2023-04-18T18:12:45.953Z,14.45
2023-04-18T18:15:13.964Z,14.47
2023-04-18T18:17:41.691Z,14.55
2023-04-18T18:20:10.270Z,14.54
2023-04-18T18:22:38.307Z,14.49
2023-04-18T18:25:06.469Z,14.50
2023-04-18T18:27:35.343Z,14.51
2023-04-18T18:30:04.113Z,14.43
2023-04-18T18:32:32.681Z,14.52
2023-04-18T18:35:01.260Z,14.71
2023-04-18T18:37:29.759Z,14.67
2023-04-18T18:39:57.936Z,14.66
2023-04-18T18:42:26.108Z,14.73
2023-04-18T18:44:54.073Z,14.75
2023-04-18T18:47:22.080Z,14.76
2023-04-18T18:49:50.743Z,14.71
2023-04-18T18:52:19.010Z,14.75
2023-04-18T18:54:46.968Z,14.59
2023-04-18T18:57:15.457Z,14.66
2023-04-18T18:59:43.507Z,14.45
2023-04-18T19:02:11.608Z,14.53
2023-04-18T19:04:41.017Z,14.52
2023-04-18T19:07:09.256Z,14.89
2023-04-18T19:09:37.134Z,15.00
2023-04-18T19:12:07.510Z,14.49
2023-04-18T19:14:35.370Z,14.43
2023-04-18T19:17:03.857Z,14.48
2023-04-18T19:19:32.210Z,14.48
2023-04-18T19:22:00.811Z,14.43
2023-04-18T19:24:28.997Z,14.31
2023-04-18T19:26:57.342Z,14.00
2023-04-18T19:29:25.414Z,14.16
2023-04-18T19:31:53.621Z,14.14
2023-04-18T19:34:22.096Z,14.01
2023-04-18T19:36:50.012Z,14.11
2023-04-18T19:39:18.111Z,13.94
2023-04-18T19:41:47.720Z,14.08
2023-04-18T19:44:15.829Z,14.03
2023-04-18T19:46:43.813Z,14.04
2023-04-18T19:49:12.349Z,13.79
2023-04-18T19:51:40.888Z,13.79
2023-04-18T19:54:08.604Z,13.69
2023-04-18T19:56:36.921Z,13.63
2023-04-18T19:59:04.978Z,13.60
2023-04-18T20:01:34.063Z,13.75
2023-04-18T20:04:02.488Z,13.71
2023-04-18T20:06:30.827Z,13.59
2023-04-18T20:08:59.305Z,13.69
2023-04-18T20:11:27.586Z,13.79
2023-04-18T20:13:55.269Z,13.61
2023-04-18T20:16:23.164Z,13.46
2023-04-18T20:18:52.974Z,13.52
2023-04-18T20:21:22.651Z,13.54
2023-04-18T20:23:50.596Z,13.61
2023-04-18T20:26:18.557Z,13.70
2023-04-18T20:28:46.534Z,13.72
2023-04-18T20:31:14.330Z,13.79
2023-04-18T20:33:42.959Z,13.68
2023-04-18T20:36:11.161Z,13.68
2023-04-18T20:38:39.020Z,13.78
2023-04-18T20:41:07.124Z,13.80
2023-04-18T20:43:34.903Z,13.93
2023-04-18T20:46:03.014Z,13.89
2023-04-18T20:48:31.331Z,13.91
2023-04-18T20:50:59.507Z,13.66
2023-04-18T20:53:27.270Z,13.82
2023-04-18T20:55:55.240Z,13.69
2023-04-18T20:58:22.979Z,13.71
2023-04-18T21:00:50.767Z,13.72
2023-04-18T21:03:19.002Z,13.66
2023-04-18T21:05:46.919Z,13.61
2023-04-18T21:08:14.512Z,13.52
2023-04-18T21:10:42.545Z,13.47
2023-04-18T21:13:10.205Z,13.43
2023-04-18T21:15:37.992Z,13.39
2023-04-18T21:18:06.337Z,13.42
2023-04-18T21:20:34.004Z,13.31
2023-04-18T21:23:01.820Z,13.17
2023-04-18T21:25:29.845Z,13.19
2023-04-18T21:27:58.003Z,13.15
2023-04-18T21:30:25.798Z,13.13
2023-04-18T21:32:53.785Z,13.05
2023-04-18T21:35:24.079Z,13.00
2023-04-18T21:37:52.538Z,13.05
2023-04-18T21:40:20.415Z,13.01
2023-04-18T21:42:49.820Z,12.95
2023-04-18T21:45:17.807Z,12.82
2023-04-18T21:47:45.841Z,12.81
2023-04-18T21:50:13.502Z,12.95
2023-04-18T21:52:41.313Z,13.03
2023-04-18T21:55:09.682Z,13.05
2023-04-18T21:57:37.313Z,13.03
2023-04-18T22:00:06.487Z,13.01
2023-04-18T22:02:36.805Z,12.95
2023-04-18T22:05:05.330Z,12.91
2023-04-18T22:07:34.200Z,13.04
2023-04-18T22:10:03.175Z,12.93
2023-04-18T22:12:31.484Z,12.87
2023-04-18T22:14:59.861Z,12.90
2023-04-18T22:17:27.547Z,12.89
2023-04-18T22:19:55.917Z,12.98
2023-04-18T22:22:23.621Z,12.88
2023-04-18T22:24:51.329Z,12.90
2023-04-18T22:27:19.313Z,12.88
2023-04-18T22:29:46.994Z,12.84
2023-04-18T22:32:14.658Z,12.96
2023-04-18T22:34:42.840Z,12.92
2023-04-18T22:37:13.682Z,12.79
2023-04-18T22:39:41.391Z,12.76
2023-04-18T22:42:09.804Z,12.69
2023-04-18T22:44:37.555Z,12.74
2023-04-18T22:47:05.264Z,12.77
2023-04-18T22:49:33.460Z,12.77
2023-04-18T22:52:01.466Z,12.81
2023-04-18T22:54:29.078Z,12.81
2023-04-18T22:56:57.210Z,12.86
2023-04-18T22:59:25.397Z,12.75
2023-04-18T23:01:53.157Z,12.72
2023-04-18T23:04:21.403Z,12.61
2023-04-18T23:06:49.283Z,12.71
2023-04-18T23:09:17.218Z,12.77
2023-04-18T23:11:46.070Z,12.74
2023-04-18T23:14:14.275Z,12.80
2023-04-18T23:16:43.819Z,12.62
2023-04-18T23:19:12.848Z,12.58
2023-04-18T23:21:40.541Z,12.54
2023-04-18T23:24:08.446Z,12.58
2023-04-18T23:26:36.820Z,12.59
2023-04-18T23:29:04.803Z,12.60
2023-04-18T23:31:32.579Z,12.72
2023-04-18T23:34:01.087Z,12.54
2023-04-18T23:36:28.798Z,12.49
2023-04-18T23:38:56.527Z,12.62
2023-04-18T23:41:24.594Z,12.75
2023-04-18T23:43:52.407Z,12.46
2023-04-18T23:46:20.161Z,12.55
2023-04-18T23:48:48.097Z,12.57
2023-04-18T23:51:15.828Z,12.68
2023-04-18T23:53:43.549Z,12.54
2023-04-18T23:56:11.493Z,12.50
2023-04-18T23:58:39.644Z,12.47
